Time;durP1;ratioP1;P1;durP2;ratioP2;P2;SDS_P1;SDS_P2;PMS_P1;PMS_P2;Temp;Humidity;BMP_temperature;BMP_pressure;BME280_temperature;BME280_humidity;BME280_pressure;Samples;Min_cycle;Max_cycle;Signal;HPM_P1;HPM_P2
2022/07/23 00:02:04;;;;;;;;;13.50;12.75;;;;;;;;5019842;28;8798;-87
2022/07/23 00:04:31;;;;;;;;;16.50;12.75;;;;;;;;5023416;28;8870;-87
2022/07/23 00:06:59;;;;;;;;;15.00;14.00;;;;;;;;5017100;28;9026;-85
2022/07/23 00:09:26;;;;;;;;;10.25;10.25;;;;;;;;5021789;28;8984;-88
2022/07/23 00:11:53;;;;;;;;;15.00;13.50;;;;;;;;5023064;28;8865;-89
2022/07/23 00:14:21;;;;;;;;;13.75;13.75;;;;;;;;5020622;28;8873;-85
2022/07/23 00:16:49;;;;;;;;;17.75;15.00;;;;;;;;5019037;28;8907;-89
2022/07/23 00:19:17;;;;;;;;;14.50;13.00;;;;;;;;5022579;28;8845;-88
2022/07/23 00:21:44;;;;;;;;;18.25;16.50;;;;;;;;5024945;28;8876;-87
2022/07/23 00:24:11;;;;;;;;;16.00;12.50;;;;;;;;5025419;28;8858;-88
2022/07/23 00:26:39;;;;;;;;;12.50;11.75;;;;;;;;5015595;28;8900;-88
2022/07/23 00:29:09;;;;;;;;;10.50;10.00;;;;;;;;5021894;28;8853;-88
2022/07/23 00:31:37;;;;;;;;;12.00;9.50;;;;;;;;5022187;28;8830;-88
2022/07/23 00:34:07;;;;;;;;;15.50;14.25;;;;;;;;5018378;28;9647;-88
2022/07/23 00:36:34;;;;;;;;;15.00;12.50;;;;;;;;5022590;28;8857;-90
2022/07/23 00:39:01;;;;;;;;;18.00;15.25;;;;;;;;5017777;28;8916;-90
2022/07/23 00:41:29;;;;;;;;;14.00;13.75;;;;;;;;5023077;28;8865;-87
2022/07/23 00:43:56;;;;;;;;;18.75;10.25;;;;;;;;5019107;28;8886;-90
2022/07/23 00:46:24;;;;;;;;;14.75;14.75;;;;;;;;5021282;28;9129;-87
2022/07/23 00:48:52;;;;;;;;;20.25;18.00;;;;;;;;5020008;28;8897;-85
2022/07/23 00:51:23;;;;;;;;;23.00;18.75;;;;;;;;5022841;28;8891;-87
2022/07/23 00:53:51;;;;;;;;;20.50;17.75;;;;;;;;5023228;28;9713;-87
2022/07/23 00:56:18;;;;;;;;;15.50;15.25;;;;;;;;5023480;28;8892;-84
2022/07/23 00:58:46;;;;;;;;;20.75;18.75;;;;;;;;5021180;28;8893;-86
2022/07/23 01:01:13;;;;;;;;;21.00;18.50;;;;;;;;5017474;28;8840;-84
2022/07/23 01:03:41;;;;;;;;;19.25;18.00;;;;;;;;5021864;28;8888;-84
2022/07/23 01:06:08;;;;;;;;;19.25;17.00;;;;;;;;5018575;28;9648;-86
2022/07/23 01:08:37;;;;;;;;;17.25;17.25;;;;;;;;5021793;28;8873;-89
2022/07/23 01:11:05;;;;;;;;;16.25;14.75;;;;;;;;5016273;28;8858;-85
2022/07/23 01:13:32;;;;;;;;;18.00;16.75;;;;;;;;5023099;28;8897;-86
2022/07/23 01:16:00;;;;;;;;;24.50;18.75;;;;;;;;5026597;28;8857;-88
2022/07/23 01:18:27;;;;;;;;;16.50;16.50;;;;;;;;5031797;28;8970;-86
2022/07/23 01:20:55;;;;;;;;;17.00;16.25;;;;;;;;5027538;28;8858;-85
2022/07/23 01:23:23;;;;;;;;;17.25;16.75;;;;;;;;5019758;28;8977;-87
2022/07/23 01:25:54;;;;;;;;;16.50;16.50;;;;;;;;5024604;28;8965;-86
2022/07/23 01:28:21;;;;;;;;;15.00;15.00;;;;;;;;5026007;28;8873;-87
2022/07/23 01:30:49;;;;;;;;;21.00;19.25;;;;;;;;5020930;28;9703;-88
2022/07/23 01:33:16;;;;;;;;;17.75;16.50;;;;;;;;5023899;28;8857;-87
2022/07/23 01:35:44;;;;;;;;;15.75;14.25;;;;;;;;5023027;28;8919;-89
2022/07/23 01:38:11;;;;;;;;;21.50;18.50;;;;;;;;5023336;28;8853;-85
2022/07/23 01:40:40;;;;;;;;;12.50;12.50;;;;;;;;5024135;28;8874;-83
2022/07/23 01:43:07;;;;;;;;;17.25;17.25;;;;;;;;5027913;28;8955;-84
2022/07/23 01:45:34;;;;;;;;;20.00;16.00;;;;;;;;5015430;28;8882;-84
2022/07/23 01:48:01;;;;;;;;;14.50;14.50;;;;;;;;5025533;28;8874;-85
2022/07/23 01:50:29;;;;;;;;;16.00;14.00;;;;;;;;5020862;28;8899;-88
2022/07/23 01:52:56;;;;;;;;;17.50;15.75;;;;;;;;5020928;28;8864;-85
2022/07/23 01:55:24;;;;;;;;;21.00;18.75;;;;;;;;5027710;28;8896;-86
2022/07/23 01:57:52;;;;;;;;;22.50;19.75;;;;;;;;5025049;28;8952;-86
2022/07/23 02:00:20;;;;;;;;;19.50;19.50;;;;;;;;5025064;28;8892;-86
2022/07/23 02:02:47;;;;;;;;;15.25;15.25;;;;;;;;5007543;28;8914;-87
2022/07/23 02:05:15;;;;;;;;;18.50;18.50;;;;;;;;5024543;28;9600;-86
2022/07/23 02:07:42;;;;;;;;;17.25;15.75;;;;;;;;5022277;28;9683;-87
2022/07/23 02:10:09;;;;;;;;;18.25;18.25;;;;;;;;5026045;28;8878;-88
2022/07/23 02:12:37;;;;;;;;;22.00;20.50;;;;;;;;5019219;28;8866;-87
2022/07/23 02:15:07;;;;;;;;;22.25;18.75;;;;;;;;5023083;28;9616;-87
2022/07/23 02:17:35;;;;;;;;;15.00;15.00;;;;;;;;5023654;28;8853;-85
2022/07/23 02:20:03;;;;;;;;;18.25;17.00;;;;;;;;5018585;28;8877;-89
2022/07/23 02:22:31;;;;;;;;;18.00;18.00;;;;;;;;5026075;28;8935;-88
2022/07/23 02:24:59;;;;;;;;;23.50;21.25;;;;;;;;5020149;28;8850;-89
2022/07/23 02:27:28;;;;;;;;;20.50;19.50;;;;;;;;5019659;28;8860;-88
2022/07/23 02:29:55;;;;;;;;;24.75;23.75;;;;;;;;5025446;28;8870;-89
2022/07/23 02:32:24;;;;;;;;;26.50;22.75;;;;;;;;5023880;28;8842;-86
2022/07/23 02:34:52;;;;;;;;;26.75;26.00;;;;;;;;5021358;28;8884;-87
2022/07/23 02:37:19;;;;;;;;;26.50;22.00;;;;;;;;5022903;28;8868;-86
2022/07/23 02:39:48;;;;;;;;;25.75;25.75;;;;;;;;5024843;28;8887;-86
2022/07/23 02:42:15;;;;;;;;;23.25;20.50;;;;;;;;5024958;28;9010;-88
2022/07/23 02:44:43;;;;;;;;;26.00;25.50;;;;;;;;5028957;28;8875;-89
2022/07/23 02:47:10;;;;;;;;;23.25;20.00;;;;;;;;5028471;28;8882;-87
2022/07/23 02:49:39;;;;;;;;;22.75;20.75;;;;;;;;5026006;28;8877;-85
2022/07/23 02:52:06;;;;;;;;;30.00;26.50;;;;;;;;5025716;28;8992;-86
2022/07/23 02:54:33;;;;;;;;;27.25;25.75;;;;;;;;5015244;28;8866;-86
2022/07/23 02:57:00;;;;;;;;;21.50;19.50;;;;;;;;5022791;28;8984;-85
2022/07/23 02:59:28;;;;;;;;;18.00;18.00;;;;;;;;5021341;28;9008;-88
2022/07/23 03:01:55;;;;;;;;;26.00;24.50;;;;;;;;5023121;28;8828;-84
2022/07/23 03:04:22;;;;;;;;;21.00;21.00;;;;;;;;5023965;28;8888;-85
2022/07/23 03:06:51;;;;;;;;;28.00;23.75;;;;;;;;5022573;28;8881;-86
2022/07/23 03:09:19;;;;;;;;;19.75;19.75;;;;;;;;5025318;28;8999;-85
2022/07/23 03:11:46;;;;;;;;;22.50;20.25;;;;;;;;5024221;28;8892;-87
2022/07/23 03:14:13;;;;;;;;;27.50;24.25;;;;;;;;5025154;28;9623;-87
2022/07/23 03:16:41;;;;;;;;;18.00;18.00;;;;;;;;5024296;28;8870;-88
2022/07/23 03:19:08;;;;;;;;;25.00;23.25;;;;;;;;5024872;28;8889;-86
2022/07/23 03:21:39;;;;;;;;;24.75;23.25;;;;;;;;5016833;28;9000;-84
2022/07/23 03:24:09;;;;;;;;;24.25;24.25;;;;;;;;5020701;28;8986;-84
2022/07/23 03:26:37;;;;;;;;;28.25;28.25;;;;;;;;5020677;28;8846;-86
2022/07/23 03:29:04;;;;;;;;;28.00;28.00;;;;;;;;5021449;28;8896;-85
2022/07/23 03:31:52;;;;;;;;;25.00;23.00;;;;;;;;5025643;28;8822;-87
2022/07/23 03:34:19;;;;;;;;;22.75;22.75;;;;;;;;5018343;28;8988;-86
2022/07/23 03:36:47;;;;;;;;;31.25;30.25;;;;;;;;5017609;28;9017;-84
2022/07/23 03:39:15;;;;;;;;;24.50;22.00;;;;;;;;5023008;28;8877;-83
2022/07/23 03:41:43;;;;;;;;;37.50;32.25;;;;;;;;5025783;28;8862;-83
2022/07/23 03:44:10;;;;;;;;;30.50;29.00;;;;;;;;5018960;28;8860;-84
2022/07/23 03:46:37;;;;;;;;;25.75;25.50;;;;;;;;5020419;28;8883;-89
2022/07/23 03:49:04;;;;;;;;;27.50;25.25;;;;;;;;5025825;28;8853;-89
2022/07/23 03:51:32;;;;;;;;;30.50;29.75;;;;;;;;5021700;28;8947;-87
2022/07/23 03:53:59;;;;;;;;;26.00;26.00;;;;;;;;5017707;28;8880;-85
2022/07/23 03:56:28;;;;;;;;;22.25;21.00;;;;;;;;5019515;28;8913;-86
2022/07/23 03:58:56;;;;;;;;;28.50;28.50;;;;;;;;5020411;28;8944;-88
2022/07/23 04:01:23;;;;;;;;;37.25;31.75;;;;;;;;5023890;28;8801;-85
2022/07/23 04:03:50;;;;;;;;;36.50;30.50;;;;;;;;5015574;28;8914;-87
2022/07/23 04:06:18;;;;;;;;;33.75;31.00;;;;;;;;5021759;28;9006;-88
2022/07/23 04:08:45;;;;;;;;;31.00;30.75;;;;;;;;5007996;28;8876;-87
2022/07/23 04:11:12;;;;;;;;;31.25;30.00;;;;;;;;5023283;28;8838;-86
2022/07/23 04:13:41;;;;;;;;;29.50;29.50;;;;;;;;5024333;28;8869;-86
2022/07/23 04:16:09;;;;;;;;;31.75;30.25;;;;;;;;5020086;28;8869;-86
2022/07/23 04:18:36;;;;;;;;;30.75;29.00;;;;;;;;5022746;28;8887;-85
2022/07/23 04:21:04;;;;;;;;;33.25;32.00;;;;;;;;5024507;28;8869;-87
2022/07/23 04:23:31;;;;;;;;;37.00;34.50;;;;;;;;5015271;28;8903;-85
2022/07/23 04:25:58;;;;;;;;;32.25;30.75;;;;;;;;5020485;28;9725;-89
2022/07/23 04:28:26;;;;;;;;;30.50;29.50;;;;;;;;5020214;28;8870;-88
2022/07/23 04:30:57;;;;;;;;;39.33;33.67;;;;;;;;5019698;28;8837;-84
2022/07/23 04:33:25;;;;;;;;;34.00;32.75;;;;;;;;5019095;28;9000;-87
2022/07/23 04:35:52;;;;;;;;;39.00;34.50;;;;;;;;5021535;28;9008;-83
2022/07/23 04:38:19;;;;;;;;;41.75;35.00;;;;;;;;5023677;28;8897;-87
2022/07/23 04:40:47;;;;;;;;;36.00;32.00;;;;;;;;5022152;28;8827;-85
2022/07/23 04:43:14;;;;;;;;;33.00;31.50;;;;;;;;5013894;28;8880;-87
2022/07/23 04:45:41;;;;;;;;;38.75;35.25;;;;;;;;5019905;28;8878;-86
2022/07/23 04:48:10;;;;;;;;;29.25;26.75;;;;;;;;5021455;28;8857;-88
2022/07/23 04:50:37;;;;;;;;;28.50;25.50;;;;;;;;5024042;28;8900;-88
2022/07/23 04:53:05;;;;;;;;;29.00;29.00;;;;;;;;5022727;28;8869;-87
2022/07/23 04:55:32;;;;;;;;;28.50;27.75;;;;;;;;5022720;28;9402;-88
2022/07/23 04:58:00;;;;;;;;;27.75;26.75;;;;;;;;5023823;28;8874;-87
2022/07/23 05:00:27;;;;;;;;;26.25;26.25;;;;;;;;5019738;28;8806;-89
2022/07/23 05:02:54;;;;;;;;;41.00;34.50;;;;;;;;5013953;28;8992;-83
2022/07/23 05:05:23;;;;;;;;;32.75;31.50;;;;;;;;5016699;28;8877;-87
2022/07/23 05:07:50;;;;;;;;;27.75;27.75;;;;;;;;5017075;28;9685;-88
2022/07/23 05:10:18;;;;;;;;;33.25;31.75;;;;;;;;5016779;28;8869;-86
2022/07/23 05:12:46;;;;;;;;;39.00;35.25;;;;;;;;5022010;28;8889;-89
2022/07/23 05:15:13;;;;;;;;;34.25;32.50;;;;;;;;5020428;28;8870;-85
2022/07/23 05:17:40;;;;;;;;;36.75;33.75;;;;;;;;5022465;28;8963;-86
2022/07/23 05:20:08;;;;;;;;;38.75;33.75;;;;;;;;5016479;28;9622;-86
2022/07/23 05:22:37;;;;;;;;;43.00;35.75;;;;;;;;5023697;28;8900;-88
2022/07/23 05:25:05;;;;;;;;;44.00;38.50;;;;;;;;5020977;28;8884;-85
2022/07/23 05:27:32;;;;;;;;;49.00;39.00;;;;;;;;5012021;28;8860;-87
2022/07/23 05:30:00;;;;;;;;;48.00;40.50;;;;;;;;5024172;28;8889;-85
2022/07/23 05:32:27;;;;;;;;;44.50;37.75;;;;;;;;5012568;28;8810;-85
2022/07/23 05:34:54;;;;;;;;;36.25;33.75;;;;;;;;5015428;28;8872;-87
2022/07/23 05:37:22;;;;;;;;;36.75;33.75;;;;;;;;5021517;28;9678;-88
2022/07/23 05:39:50;;;;;;;;;43.25;37.50;;;;;;;;5024100;28;8901;-88
2022/07/23 05:42:18;;;;;;;;;44.75;38.75;;;;;;;;5023638;28;8881;-91
2022/07/23 05:44:45;;;;;;;;;45.25;37.00;;;;;;;;5022894;28;8874;-85
2022/07/23 05:47:12;;;;;;;;;48.75;40.75;;;;;;;;5019821;28;8903;-84
2022/07/23 05:49:40;;;;;;;;;45.50;37.50;;;;;;;;5023456;28;9585;-85
2022/07/23 05:52:08;;;;;;;;;46.50;37.75;;;;;;;;5023429;28;8877;-85
2022/07/23 05:54:36;;;;;;;;;43.25;37.50;;;;;;;;5022719;28;8850;-84
2022/07/23 05:57:05;;;;;;;;;47.00;39.50;;;;;;;;5022289;28;8914;-84
2022/07/23 05:59:33;;;;;;;;;46.00;39.50;;;;;;;;5013786;28;9636;-87
2022/07/23 06:02:00;;;;;;;;;45.75;37.00;;;;;;;;5036213;28;8822;-81
2022/07/23 06:04:28;;;;;;;;;45.50;37.75;;;;;;;;5022000;28;8865;-83
2022/07/23 06:06:55;;;;;;;;;42.25;35.50;;;;;;;;5016799;28;8850;-90
2022/07/23 06:09:23;;;;;;;;;48.50;37.75;;;;;;;;5024287;28;8857;-85
2022/07/23 06:11:50;;;;;;;;;48.25;40.50;;;;;;;;5031855;28;8889;-86
2022/07/23 06:14:21;;;;;;;;;41.50;35.75;;;;;;;;5018384;28;8923;-84
2022/07/23 06:16:48;;;;;;;;;43.00;37.25;;;;;;;;5024612;28;8895;-86
2022/07/23 06:19:16;;;;;;;;;46.75;38.50;;;;;;;;5029773;28;8877;-88
2022/07/23 06:21:43;;;;;;;;;31.00;30.25;;;;;;;;5035380;28;8972;-89
2022/07/23 06:32:16;;;;;;;;;43.25;36.50;;;;;;;;5036381;28;8898;-88
2022/07/23 06:34:44;;;;;;;;;45.00;36.25;;;;;;;;5048034;28;8940;-83
2022/07/23 06:37:11;;;;;;;;;39.00;34.75;;;;;;;;5045970;28;8874;-88
2022/07/23 06:39:39;;;;;;;;;47.25;39.00;;;;;;;;5050843;28;8851;-85
2022/07/23 06:42:06;;;;;;;;;44.50;36.75;;;;;;;;5048422;28;8878;-78
2022/07/23 06:44:35;;;;;;;;;45.25;37.75;;;;;;;;5047420;28;8881;-74
2022/07/23 06:47:02;;;;;;;;;51.00;40.00;;;;;;;;5048311;28;8908;-74
2022/07/23 06:49:30;;;;;;;;;39.75;35.00;;;;;;;;5052507;28;8948;-74
2022/07/23 06:51:57;;;;;;;;;42.25;37.00;;;;;;;;5045106;28;8891;-75
2022/07/23 06:54:24;;;;;;;;;44.25;38.25;;;;;;;;5043641;28;8962;-76
2022/07/23 06:56:52;;;;;;;;;43.25;36.00;;;;;;;;5046379;28;9633;-75
2022/07/23 06:59:20;;;;;;;;;38.50;33.50;;;;;;;;5043379;28;8847;-75
2022/07/23 07:01:48;;;;;;;;;46.25;37.00;;;;;;;;5029566;28;8837;-74
2022/07/23 07:04:15;;;;;;;;;33.25;32.25;;;;;;;;5020181;28;8889;-74
2022/07/23 07:06:43;;;;;;;;;46.00;37.25;;;;;;;;5024271;28;8869;-73
2022/07/23 07:09:10;;;;;;;;;40.75;36.50;;;;;;;;5025394;28;9512;-74
2022/07/23 07:11:38;;;;;;;;;39.00;34.00;;;;;;;;5020455;28;8900;-75
2022/07/23 07:14:06;;;;;;;;;40.75;37.00;;;;;;;;5025670;28;8869;-75
2022/07/23 07:16:33;;;;;;;;;47.25;38.00;;;;;;;;5024344;28;8885;-75
2022/07/23 07:19:04;;;;;;;;;45.25;37.50;;;;;;;;5022833;28;8881;-77
2022/07/23 07:21:32;;;;;;;;;47.50;39.25;;;;;;;;5017780;28;8858;-73
2022/07/23 07:23:59;;;;;;;;;46.25;35.25;;;;;;;;5019339;28;8869;-76
2022/07/23 07:26:27;;;;;;;;;40.50;35.00;;;;;;;;5018001;28;8866;-74
2022/07/23 07:28:54;;;;;;;;;48.50;38.50;;;;;;;;5023983;28;8845;-74
2022/07/23 07:31:21;;;;;;;;;43.00;36.25;;;;;;;;5019034;28;8828;-75
2022/07/23 07:33:49;;;;;;;;;48.00;38.75;;;;;;;;5023328;28;8936;-74
2022/07/23 07:36:17;;;;;;;;;48.50;41.25;;;;;;;;5023355;28;8854;-77
2022/07/23 07:38:45;;;;;;;;;48.25;38.75;;;;;;;;5023734;28;8891;-76
2022/07/23 07:41:12;;;;;;;;;49.25;40.50;;;;;;;;5023148;28;8882;-76
2022/07/23 07:43:40;;;;;;;;;47.00;40.00;;;;;;;;5023173;28;8850;-76
2022/07/23 07:46:09;;;;;;;;;51.25;42.50;;;;;;;;5018089;28;8893;-78
2022/07/23 07:48:37;;;;;;;;;46.50;39.25;;;;;;;;5024293;28;8913;-76
2022/07/23 07:51:05;;;;;;;;;49.50;40.75;;;;;;;;5020097;28;8951;-74
2022/07/23 07:53:34;;;;;;;;;41.25;36.50;;;;;;;;5021345;28;8966;-75
2022/07/23 07:56:01;;;;;;;;;34.00;32.50;;;;;;;;5021945;28;8876;-74
2022/07/23 07:58:29;;;;;;;;;41.75;36.75;;;;;;;;5023688;28;9395;-74
2022/07/23 08:00:56;;;;;;;;;45.50;36.75;;;;;;;;5019261;28;8822;-76
2022/07/23 08:03:24;;;;;;;;;42.00;35.75;;;;;;;;5022238;28;8992;-76
2022/07/23 08:05:51;;;;;;;;;36.75;33.50;;;;;;;;5023391;28;8880;-75
2022/07/23 08:08:18;;;;;;;;;43.00;35.75;;;;;;;;5020991;28;8988;-75
2022/07/23 08:10:47;;;;;;;;;42.50;37.25;;;;;;;;5019174;28;8916;-74
2022/07/23 08:13:16;;;;;;;;;39.50;35.75;;;;;;;;5020906;28;9008;-75
2022/07/23 08:15:44;;;;;;;;;37.75;33.00;;;;;;;;5019191;28;8865;-81
2022/07/23 08:18:11;;;;;;;;;36.00;33.25;;;;;;;;5018032;28;8868;-76
2022/07/23 08:20:38;;;;;;;;;39.00;34.75;;;;;;;;5018940;28;8923;-75
2022/07/23 08:23:07;;;;;;;;;37.50;33.75;;;;;;;;5022327;28;8845;-76
2022/07/23 08:25:36;;;;;;;;;40.75;35.25;;;;;;;;5024033;28;8947;-76
2022/07/23 08:28:08;;;;;;;;;40.50;35.25;;;;;;;;5021840;28;8907;-75
2022/07/23 08:30:36;;;;;;;;;30.60;29.00;;;;;;;;5015449;28;8818;-75
2022/07/23 08:33:06;;;;;;;;;28.40;28.40;;;;;;;;5020647;28;8861;-79
2022/07/23 08:35:36;;;;;;;;;28.20;27.40;;;;;;;;5014409;28;8873;-76
2022/07/23 08:38:06;;;;;;;;;29.60;29.60;;;;;;;;5019416;28;8954;-76
2022/07/23 08:40:36;;;;;;;;;28.60;28.20;;;;;;;;5016615;28;8891;-77
2022/07/23 08:43:06;;;;;;;;;28.80;28.80;;;;;;;;5033523;28;9017;-78
2022/07/23 08:45:38;;;;;;;;;32.00;29.80;;;;;;;;5019701;28;8861;-77
2022/07/23 08:48:07;;;;;;;;;32.60;29.00;;;;;;;;5022313;28;8957;-77
2022/07/23 08:50:37;;;;;;;;;34.40;32.00;;;;;;;;5021723;28;8895;-78
2022/07/23 08:53:07;;;;;;;;;30.80;29.80;;;;;;;;5022121;28;9015;-77
2022/07/23 08:55:35;;;;;;;;;29.00;28.00;;;;;;;;5021054;28;8869;-77
2022/07/23 08:58:02;;;;;;;;;30.80;29.80;;;;;;;;5023590;28;8861;-78
2022/07/23 09:00:31;;;;;;;;;35.80;31.00;;;;;;;;5017221;28;8852;-78
2022/07/23 09:02:59;;;;;;;;;24.80;24.80;;;;;;;;5021275;28;8996;-76
2022/07/23 09:05:26;;;;;;;;;29.40;29.40;;;;;;;;5019395;28;8869;-76
2022/07/23 09:08:08;;;;;;;;;24.40;24.40;;;;;;;;5021744;28;8836;-76
2022/07/23 09:10:47;;;;;;;;;28.40;27.40;;;;;;;;5019544;28;8870;-76
2022/07/23 09:13:43;;;;;;;;;24.40;21.20;;;;;;;;5021892;28;8858;-76
2022/07/23 09:16:14;;;;;;;;;25.60;23.60;;;;;;;;4998582;28;9028;-76
2022/07/23 09:18:44;;;;;;;;;24.20;24.00;;;;;;;;5026938;28;8866;-77
2022/07/23 09:21:14;;;;;;;;;28.20;26.60;;;;;;;;5020588;28;8870;-76
2022/07/23 09:23:43;;;;;;;;;25.80;23.60;;;;;;;;5018872;28;8865;-76
2022/07/23 09:26:31;;;;;;;;;20.80;20.80;;;;;;;;5015465;28;8873;-76
2022/07/23 09:29:00;;;;;;;;;23.40;21.80;;;;;;;;5016729;28;8842;-76
2022/07/23 09:31:35;;;;;;;;;22.80;22.80;;;;;;;;5018120;28;8868;-77
2022/07/23 09:34:10;;;;;;;;;27.40;25.60;;;;;;;;5020569;28;8870;-77
2022/07/23 09:36:38;;;;;;;;;18.20;17.40;;;;;;;;5022074;28;9007;-75
2022/07/23 09:39:06;;;;;;;;;24.00;24.00;;;;;;;;5027073;28;8865;-74
2022/07/23 09:41:39;;;;;;;;;19.80;19.80;;;;;;;;5019790;28;8973;-80
2022/07/23 09:44:11;;;;;;;;;20.20;20.00;;;;;;;;5024149;28;8951;-82
2022/07/23 09:46:41;;;;;;;;;22.80;22.80;;;;;;;;5013847;28;8882;-81
2022/07/23 09:49:15;;;;;;;;;18.40;18.40;;;;;;;;5011094;28;8873;-79
2022/07/23 09:51:51;;;;;;;;;24.40;22.80;;;;;;;;5015556;28;9004;-79
2022/07/23 09:54:34;;;;;;;;;19.20;15.80;;;;;;;;5027264;28;8943;-76
2022/07/23 09:57:05;;;;;;;;;16.00;16.00;;;;;;;;5021907;28;8864;-78
2022/07/23 09:59:34;;;;;;;;;16.80;16.20;;;;;;;;5026155;28;9604;-78
2022/07/23 10:02:05;;;;;;;;;18.00;18.00;;;;;;;;5042603;28;8844;-79
2022/07/23 10:04:33;;;;;;;;;22.80;22.00;;;;;;;;5028788;28;8877;-79
2022/07/23 10:07:02;;;;;;;;;19.20;18.20;;;;;;;;5022208;28;8975;-78
2022/07/23 10:09:32;;;;;;;;;16.80;16.80;;;;;;;;5026498;28;8877;-78
2022/07/23 10:14:48;;;;;;;;;15.40;14.00;;;;;;;;5020009;28;8857;-80
2022/07/23 10:17:17;;;;;;;;;18.60;18.60;;;;;;;;5024231;28;8854;-79
2022/07/23 10:19:45;;;;;;;;;20.80;17.40;;;;;;;;5023665;28;8882;-79
2022/07/23 10:22:14;;;;;;;;;16.00;16.00;;;;;;;;5024239;28;9635;-76
2022/07/23 10:24:55;;;;;;;;;21.00;21.00;;;;;;;;5018567;28;8893;-81
2022/07/23 10:27:37;;;;;;;;;22.00;20.40;;;;;;;;5022876;28;8858;-79
2022/07/23 10:30:07;;;;;;;;;20.40;20.20;;;;;;;;5021733;28;8937;-79
2022/07/23 10:32:43;;;;;;;;;18.40;18.00;;;;;;;;5021224;28;8915;-77
2022/07/23 10:35:18;;;;;;;;;17.00;17.00;;;;;;;;5018982;28;8869;-79
2022/07/23 10:37:48;;;;;;;;;17.40;16.20;;;;;;;;5015021;28;8908;-77
2022/07/23 10:40:17;;;;;;;;;19.80;17.80;;;;;;;;5022348;28;8885;-79
2022/07/23 10:42:45;;;;;;;;;18.00;18.00;;;;;;;;5021131;28;8901;-78
2022/07/23 10:45:31;;;;;;;;;16.00;16.00;;;;;;;;5020265;28;8992;-79
2022/07/23 10:48:15;;;;;;;;;16.40;16.40;;;;;;;;5014284;28;8897;-78
2022/07/23 10:50:43;;;;;;;;;13.00;13.00;;;;;;;;5017398;28;8924;-81
2022/07/23 10:53:17;;;;;;;;;15.00;15.00;;;;;;;;5027273;28;8911;-77
2022/07/23 10:55:47;;;;;;;;;15.80;14.20;;;;;;;;5024179;28;8894;-76
2022/07/23 10:58:20;;;;;;;;;14.00;14.00;;;;;;;;5025900;28;8873;-78
2022/07/23 11:00:47;;;;;;;;;13.40;11.40;;;;;;;;5023778;28;8770;-77
2022/07/23 11:03:43;;;;;;;;;14.00;14.00;;;;;;;;5020461;28;8924;-81
2022/07/23 11:06:23;;;;;;;;;14.20;12.40;;;;;;;;5019395;28;8865;-85
2022/07/23 11:09:26;;;;;;;;;14.00;14.00;;;;;;;;5020818;28;8890;-90
2022/07/23 11:12:28;;;;;;;;;16.40;14.20;;;;;;;;5024271;28;8878;-89
2022/07/23 11:22:51;;;;;;;;;11.80;10.00;;;;;;;;5341899;22;9009;-77
2022/07/23 11:25:36;;;;;;;;;7.80;7.80;;;;;;;;5041510;28;8859;-81
2022/07/23 11:28:17;;;;;;;;;12.80;10.80;;;;;;;;5043711;28;8887;-86
2022/07/23 11:30:46;;;;;;;;;9.60;9.60;;;;;;;;5049399;28;8910;-90
2022/07/23 11:33:22;;;;;;;;;7.60;7.60;;;;;;;;5045878;28;8883;-89
2022/07/23 11:36:03;;;;;;;;;9.40;9.40;;;;;;;;5041061;28;8914;-85
2022/07/23 11:38:33;;;;;;;;;11.00;11.00;;;;;;;;5039562;28;8882;-85
2022/07/23 11:41:07;;;;;;;;;10.00;9.00;;;;;;;;5043267;28;8879;-84
2022/07/23 11:43:39;;;;;;;;;9.20;9.20;;;;;;;;5037120;28;8984;-82
2022/07/23 11:46:10;;;;;;;;;10.20;10.20;;;;;;;;5041793;28;9655;-76
2022/07/23 11:48:40;;;;;;;;;11.60;11.60;;;;;;;;5045104;28;8925;-85
2022/07/23 11:51:26;;;;;;;;;11.00;11.00;;;;;;;;5043316;28;9052;-85
2022/07/23 11:53:55;;;;;;;;;10.60;10.40;;;;;;;;5044568;28;8862;-86
2022/07/23 11:56:22;;;;;;;;;9.40;9.40;;;;;;;;5046632;28;8871;-86
2022/07/23 11:58:59;;;;;;;;;10.00;10.00;;;;;;;;5047241;28;8909;-84
2022/07/23 12:01:26;;;;;;;;;9.60;9.60;;;;;;;;5041343;28;9279;-84
2022/07/23 12:03:54;;;;;;;;;11.80;11.80;;;;;;;;5045462;28;9542;-84
2022/07/23 12:06:21;;;;;;;;;10.00;10.00;;;;;;;;5044661;28;8979;-86
2022/07/23 12:08:49;;;;;;;;;11.80;11.80;;;;;;;;5045993;28;8871;-87
2022/07/23 12:11:18;;;;;;;;;13.60;13.60;;;;;;;;5044833;28;8886;-86
2022/07/23 12:13:45;;;;;;;;;18.00;13.00;;;;;;;;5045520;28;8889;-86
2022/07/23 12:16:15;;;;;;;;;13.60;13.00;;;;;;;;5047181;28;8997;-84
2022/07/23 12:18:47;;;;;;;;;13.00;11.20;;;;;;;;5043381;28;8978;-86
2022/07/23 12:21:22;;;;;;;;;10.20;10.20;;;;;;;;5041981;28;8843;-86
2022/07/23 12:23:50;;;;;;;;;14.80;14.80;;;;;;;;5044797;28;8892;-83
2022/07/23 12:26:19;;;;;;;;;15.00;14.20;;;;;;;;5045162;28;8990;-84
2022/07/23 12:28:54;;;;;;;;;17.20;17.20;;;;;;;;5042048;28;8908;-84
2022/07/23 12:31:30;;;;;;;;;13.20;13.20;;;;;;;;5042364;28;8811;-81
2022/07/23 12:34:00;;;;;;;;;16.80;16.80;;;;;;;;5045043;28;8870;-84
2022/07/23 12:36:39;;;;;;;;;21.40;19.60;;;;;;;;5038738;28;8857;-85
2022/07/23 12:39:07;;;;;;;;;20.40;20.40;;;;;;;;5044335;28;8859;-85
2022/07/23 12:41:57;;;;;;;;;19.20;18.40;;;;;;;;5042060;28;9632;-85
2022/07/23 12:44:24;;;;;;;;;23.00;23.00;;;;;;;;5044555;28;8878;-83
2022/07/23 12:46:52;;;;;;;;;17.40;17.20;;;;;;;;5044435;28;8870;-85
2022/07/23 12:49:38;;;;;;;;;18.40;18.40;;;;;;;;5044036;28;8883;-87
2022/07/23 12:52:16;;;;;;;;;23.60;23.20;;;;;;;;5044543;28;8879;-86
2022/07/23 12:54:47;;;;;;;;;19.80;19.80;;;;;;;;5030011;28;8851;-85
2022/07/23 12:57:16;;;;;;;;;24.40;23.40;;;;;;;;5045577;28;8859;-85
2022/07/23 12:59:44;;;;;;;;;20.20;20.20;;;;;;;;5041140;28;8889;-85
2022/07/23 13:02:11;;;;;;;;;19.80;19.80;;;;;;;;5040921;28;8811;-85
2022/07/23 13:04:42;;;;;;;;;22.60;21.80;;;;;;;;5034450;28;8896;-85
2022/07/23 13:07:09;;;;;;;;;20.40;20.40;;;;;;;;5044717;28;9005;-85
2022/07/23 13:09:37;;;;;;;;;20.00;18.20;;;;;;;;5041985;28;8863;-85
2022/07/23 13:12:05;;;;;;;;;20.80;20.80;;;;;;;;5044405;28;8871;-84
2022/07/23 13:14:36;;;;;;;;;22.40;22.40;;;;;;;;5044299;28;8847;-86
2022/07/23 13:17:03;;;;;;;;;19.20;19.20;;;;;;;;5042691;28;8990;-85
2022/07/23 13:19:30;;;;;;;;;21.20;20.00;;;;;;;;5043980;28;8867;-85
2022/07/23 13:21:58;;;;;;;;;20.80;19.80;;;;;;;;5041241;28;9658;-86
2022/07/23 13:24:25;;;;;;;;;18.40;16.80;;;;;;;;5044396;28;9637;-85
2022/07/23 13:26:53;;;;;;;;;23.80;23.40;;;;;;;;5042166;28;8881;-85
2022/07/23 13:29:20;;;;;;;;;17.20;17.20;;;;;;;;5044341;28;8867;-85
2022/07/23 13:31:52;;;;;;;;;18.40;17.60;;;;;;;;5041254;28;8788;-85
2022/07/23 13:34:19;;;;;;;;;21.00;19.60;;;;;;;;5043705;28;8847;-85
2022/07/23 13:36:49;;;;;;;;;22.00;22.00;;;;;;;;5044106;28;8902;-84
2022/07/23 13:39:16;;;;;;;;;21.20;19.20;;;;;;;;5040956;28;8867;-85
2022/07/23 13:41:44;;;;;;;;;27.60;23.80;;;;;;;;5044233;28;8871;-85
2022/07/23 13:44:11;;;;;;;;;17.40;15.80;;;;;;;;5042482;28;8883;-86
2022/07/23 13:46:38;;;;;;;;;21.00;20.40;;;;;;;;5044725;28;8879;-86
2022/07/23 13:49:07;;;;;;;;;18.20;15.00;;;;;;;;5038487;28;8965;-85
2022/07/23 13:51:35;;;;;;;;;19.00;18.20;;;;;;;;5044849;28;8873;-85
2022/07/23 13:54:04;;;;;;;;;19.60;19.00;;;;;;;;5045860;28;8871;-85
2022/07/23 13:56:31;;;;;;;;;19.40;19.40;;;;;;;;5039942;28;8921;-84
2022/07/23 13:59:10;;;;;;;;;19.20;18.40;;;;;;;;5043742;28;8883;-86
2022/07/23 14:01:50;;;;;;;;;21.60;19.60;;;;;;;;5042423;28;8888;-84
2022/07/23 14:04:19;;;;;;;;;16.40;16.00;;;;;;;;5046493;28;8855;-86
2022/07/23 14:06:47;;;;;;;;;18.60;18.60;;;;;;;;5040122;28;8886;-88
2022/07/23 14:09:14;;;;;;;;;19.20;18.60;;;;;;;;5042037;28;9679;-82
2022/07/23 14:11:42;;;;;;;;;16.80;16.80;;;;;;;;5035728;28;8892;-83
2022/07/23 14:14:09;;;;;;;;;18.80;17.80;;;;;;;;5055068;28;8863;-83
2022/07/23 14:16:37;;;;;;;;;19.60;18.80;;;;;;;;5042178;28;9712;-85
2022/07/23 14:19:04;;;;;;;;;17.00;17.00;;;;;;;;5043115;28;8871;-85
2022/07/23 14:21:35;;;;;;;;;14.80;14.80;;;;;;;;5040794;28;8893;-86
2022/07/23 14:24:03;;;;;;;;;19.60;19.60;;;;;;;;5048551;28;8881;-86
2022/07/23 14:26:30;;;;;;;;;16.40;16.40;;;;;;;;5053793;28;8873;-86
2022/07/23 14:29:01;;;;;;;;;13.00;13.00;;;;;;;;5058028;28;8909;-86
2022/07/23 14:31:28;;;;;;;;;17.00;17.00;;;;;;;;5046610;28;8930;-87
2022/07/23 14:33:55;;;;;;;;;19.40;16.20;;;;;;;;5037168;28;8866;-87
2022/07/23 14:36:23;;;;;;;;;18.40;18.40;;;;;;;;5050271;28;8875;-85
2022/07/23 14:38:51;;;;;;;;;19.40;17.80;;;;;;;;5055111;28;8851;-87
2022/07/23 14:41:19;;;;;;;;;14.20;14.20;;;;;;;;5042224;28;8925;-86
2022/07/23 14:43:46;;;;;;;;;15.00;15.00;;;;;;;;5046964;28;9068;-84
2022/07/23 14:46:14;;;;;;;;;18.00;16.40;;;;;;;;5049883;28;8868;-85
2022/07/23 14:48:41;;;;;;;;;17.60;17.00;;;;;;;;5061650;28;9010;-85
2022/07/23 14:51:09;;;;;;;;;13.00;13.00;;;;;;;;5047001;28;9017;-86
2022/07/23 14:53:37;;;;;;;;;13.60;13.60;;;;;;;;5045519;28;8890;-82
2022/07/23 14:56:06;;;;;;;;;17.40;17.40;;;;;;;;5040364;28;8874;-80
2022/07/23 14:58:33;;;;;;;;;15.40;13.00;;;;;;;;5038235;28;8886;-88
2022/07/23 15:01:00;;;;;;;;;15.60;15.60;;;;;;;;5040653;28;8794;-85
2022/07/23 15:03:28;;;;;;;;;22.00;19.00;;;;;;;;5043472;28;8879;-88